sensor_id;sensor_type;location;lat;lon;timestamp;P1;P2;P0
69349;PMS5003;64554;43.452;4.934;2022-11-15T00:00:22;6.60;6.60;5.00
69349;PMS5003;64554;43.452;4.934;2022-11-15T00:02:48;5.60;5.60;3.60
69349;PMS5003;64554;43.452;4.934;2022-11-15T00:05:15;7.25;7.25;5.00
69349;PMS5003;64554;43.452;4.934;2022-11-15T00:07:41;6.50;6.00;4.75
69349;PMS5003;64554;43.452;4.934;2022-11-15T00:10:21;5.60;5.60;3.80
69349;PMS5003;64554;43.452;4.934;2022-11-15T00:12:47;8.60;8.00;5.60
69349;PMS5003;64554;43.452;4.934;2022-11-15T00:15:13;9.60;8.00;5.00
69349;PMS5003;64554;43.452;4.934;2022-11-15T00:17:40;8.00;8.00;5.50
69349;PMS5003;64554;43.452;4.934;2022-11-15T00:20:06;10.40;10.40;7.00
69349;PMS5003;64554;43.452;4.934;2022-11-15T00:22:33;8.40;7.20;5.00
69349;PMS5003;64554;43.452;4.934;2022-11-15T00:25:00;8.80;8.00;5.40
69349;PMS5003;64554;43.452;4.934;2022-11-15T00:27:26;9.00;7.80;5.00
69349;PMS5003;64554;43.452;4.934;2022-11-15T00:29:53;8.00;7.00;3.40
69349;PMS5003;64554;43.452;4.934;2022-11-15T00:32:20;13.20;10.80;4.80
69349;PMS5003;64554;43.452;4.934;2022-11-15T00:34:46;6.00;6.00;5.00
69349;PMS5003;64554;43.452;4.934;2022-11-15T00:37:12;5.00;5.00;4.00
69349;PMS5003;64554;43.452;4.934;2022-11-15T00:39:39;6.60;6.60;4.00
69349;PMS5003;64554;43.452;4.934;2022-11-15T00:42:05;5.00;5.00;3.00
69349;PMS5003;64554;43.452;4.934;2022-11-15T00:44:32;7.00;7.00;5.00
69349;PMS5003;64554;43.452;4.934;2022-11-15T00:46:58;6.00;5.00;4.00
69349;PMS5003;64554;43.452;4.934;2022-11-15T00:49:25;7.00;6.00;4.00
69349;PMS5003;64554;43.452;4.934;2022-11-15T00:51:51;7.00;7.00;4.00
69349;PMS5003;64554;43.452;4.934;2022-11-15T00:54:17;5.00;5.00;3.00
69349;PMS5003;64554;43.452;4.934;2022-11-15T00:56:44;6.00;6.00;3.00
69349;PMS5003;64554;43.452;4.934;2022-11-15T00:59:10;8.60;8.60;4.60
69349;PMS5003;64554;43.452;4.934;2022-11-15T01:01:37;8.00;8.00;6.00
69349;PMS5003;64554;43.452;4.934;2022-11-15T01:04:03;8.20;8.20;6.00
69349;PMS5003;64554;43.452;4.934;2022-11-15T01:06:30;10.80;10.80;5.80
69349;PMS5003;64554;43.452;4.934;2022-11-15T01:08:56;7.00;7.00;4.00
69349;PMS5003;64554;43.452;4.934;2022-11-15T01:11:23;9.60;9.60;5.60
69349;PMS5003;64554;43.452;4.934;2022-11-15T01:13:49;11.00;9.50;7.00
69349;PMS5003;64554;43.452;4.934;2022-11-15T01:16:16;9.40;9.40;5.40
69349;PMS5003;64554;43.452;4.934;2022-11-15T01:18:44;9.25;8.00;5.00
69349;PMS5003;64554;43.452;4.934;2022-11-15T01:21:13;8.00;8.00;6.00
69349;PMS5003;64554;43.452;4.934;2022-11-15T01:23:40;8.00;6.50;5.00
69349;PMS5003;64554;43.452;4.934;2022-11-15T01:26:07;7.00;7.00;4.00
69349;PMS5003;64554;43.452;4.934;2022-11-15T01:28:35;7.00;6.00;3.67
69349;PMS5003;64554;43.452;4.934;2022-11-15T01:31:02;8.50;5.00;4.00
69349;PMS5003;64554;43.452;4.934;2022-11-15T01:33:29;5.60;5.60;4.00
69349;PMS5003;64554;43.452;4.934;2022-11-15T01:35:56;7.00;7.00;3.00
69349;PMS5003;64554;43.452;4.934;2022-11-15T01:38:22;6.00;6.00;4.00
69349;PMS5003;64554;43.452;4.934;2022-11-15T01:40:49;6.20;6.00;3.00
69349;PMS5003;64554;43.452;4.934;2022-11-15T01:43:35;7.80;7.80;4.40
69349;PMS5003;64554;43.452;4.934;2022-11-15T01:48:37;8.40;7.40;5.00
69349;PMS5003;64554;43.452;4.934;2022-11-15T01:51:05;6.50;6.50;4.00
69349;PMS5003;64554;43.452;4.934;2022-11-15T01:53:32;9.00;9.00;4.75
69349;PMS5003;64554;43.452;4.934;2022-11-15T01:56:01;9.00;9.00;6.00
69349;PMS5003;64554;43.452;4.934;2022-11-15T01:58:28;7.00;6.75;4.00
69349;PMS5003;64554;43.452;4.934;2022-11-15T02:00:55;8.80;8.80;5.00
69349;PMS5003;64554;43.452;4.934;2022-11-15T02:03:21;7.80;7.80;5.00
69349;PMS5003;64554;43.452;4.934;2022-11-15T02:05:51;7.60;7.60;4.80
69349;PMS5003;64554;43.452;4.934;2022-11-15T02:08:18;6.80;6.80;4.80
69349;PMS5003;64554;43.452;4.934;2022-11-15T02:10:47;11.60;11.00;6.00
69349;PMS5003;64554;43.452;4.934;2022-11-15T02:13:14;8.40;7.40;5.40
69349;PMS5003;64554;43.452;4.934;2022-11-15T02:15:48;8.75;8.75;5.75
69349;PMS5003;64554;43.452;4.934;2022-11-15T02:18:27;11.60;11.60;7.00
69349;PMS5003;64554;43.452;4.934;2022-11-15T02:21:01;9.00;9.00;7.00
69349;PMS5003;64554;43.452;4.934;2022-11-15T02:26:24;13.00;11.00;7.00
69349;PMS5003;64554;43.452;4.934;2022-11-15T02:29:01;8.00;8.00;6.00
69349;PMS5003;64554;43.452;4.934;2022-11-15T02:37:01;10.80;10.00;6.80
69349;PMS5003;64554;43.452;4.934;2022-11-15T02:39:38;12.50;11.00;8.00
69349;PMS5003;64554;43.452;4.934;2022-11-15T02:42:09;8.50;8.50;6.50
69349;PMS5003;64554;43.452;4.934;2022-11-15T02:44:57;11.00;11.00;6.60
69349;PMS5003;64554;43.452;4.934;2022-11-15T02:47:25;11.00;11.00;7.00
69349;PMS5003;64554;43.452;4.934;2022-11-15T02:49:54;11.50;11.50;6.75
69349;PMS5003;64554;43.452;4.934;2022-11-15T02:52:22;9.80;9.80;6.20
69349;PMS5003;64554;43.452;4.934;2022-11-15T02:54:55;10.00;9.75;5.75
69349;PMS5003;64554;43.452;4.934;2022-11-15T03:02:42;11.00;11.00;7.00
69349;PMS5003;64554;43.452;4.934;2022-11-15T03:07:42;12.00;12.00;8.00
69349;PMS5003;64554;43.452;4.934;2022-11-15T03:10:15;11.50;10.00;6.00
69349;PMS5003;64554;43.452;4.934;2022-11-15T03:15:33;15.40;15.40;6.00
69349;PMS5003;64554;43.452;4.934;2022-11-15T03:20:41;16.00;14.00;9.00
69349;PMS5003;64554;43.452;4.934;2022-11-15T03:23:09;15.00;12.50;8.00
69349;PMS5003;64554;43.452;4.934;2022-11-15T03:25:37;14.60;14.60;8.00
69349;PMS5003;64554;43.452;4.934;2022-11-15T03:28:06;14.00;13.00;8.40
69349;PMS5003;64554;43.452;4.934;2022-11-15T03:30:33;12.00;10.60;7.60
69349;PMS5003;64554;43.452;4.934;2022-11-15T03:33:02;11.00;11.00;6.50
69349;PMS5003;64554;43.452;4.934;2022-11-15T03:35:32;12.40;12.40;7.00
69349;PMS5003;64554;43.452;4.934;2022-11-15T03:38:17;10.00;10.00;6.00
69349;PMS5003;64554;43.452;4.934;2022-11-15T03:40:58;15.20;14.00;9.00
69349;PMS5003;64554;43.452;4.934;2022-11-15T03:46:02;15.00;13.50;8.50
69349;PMS5003;64554;43.452;4.934;2022-11-15T03:48:30;12.00;11.00;7.00
69349;PMS5003;64554;43.452;4.934;2022-11-15T03:51:00;11.40;11.40;7.00
69349;PMS5003;64554;43.452;4.934;2022-11-15T03:53:27;9.00;9.00;6.50
69349;PMS5003;64554;43.452;4.934;2022-11-15T03:55:54;13.25;12.25;7.25
69349;PMS5003;64554;43.452;4.934;2022-11-15T03:58:21;10.00;10.00;7.00
69349;PMS5003;64554;43.452;4.934;2022-11-15T04:00:47;14.00;14.00;8.00
69349;PMS5003;64554;43.452;4.934;2022-11-15T04:03:14;12.75;11.00;7.50
69349;PMS5003;64554;43.452;4.934;2022-11-15T04:05:41;10.60;9.60;6.20
69349;PMS5003;64554;43.452;4.934;2022-11-15T04:08:07;11.60;11.60;7.00
69349;PMS5003;64554;43.452;4.934;2022-11-15T04:10:33;13.00;13.00;9.60
69349;PMS5003;64554;43.452;4.934;2022-11-15T04:13:01;13.60;12.20;8.20
69349;PMS5003;64554;43.452;4.934;2022-11-15T04:15:28;13.00;12.00;9.00
69349;PMS5003;64554;43.452;4.934;2022-11-15T04:17:56;11.60;11.60;8.00
69349;PMS5003;64554;43.452;4.934;2022-11-15T04:25:57;15.00;12.40;7.40
69349;PMS5003;64554;43.452;4.934;2022-11-15T04:28:25;14.00;13.00;8.00
69349;PMS5003;64554;43.452;4.934;2022-11-15T04:30:52;14.25;14.00;10.00
69349;PMS5003;64554;43.452;4.934;2022-11-15T04:33:18;16.00;14.00;9.00
69349;PMS5003;64554;43.452;4.934;2022-11-15T04:35:45;18.50;17.50;8.25
69349;PMS5003;64554;43.452;4.934;2022-11-15T04:38:31;16.60;15.80;8.80
69349;PMS5003;64554;43.452;4.934;2022-11-15T04:40:58;16.00;15.00;8.40
69349;PMS5003;64554;43.452;4.934;2022-11-15T04:43:24;17.60;14.00;9.00
69349;PMS5003;64554;43.452;4.934;2022-11-15T04:45:51;17.00;16.00;8.00
69349;PMS5003;64554;43.452;4.934;2022-11-15T04:48:17;16.60;14.00;9.00
69349;PMS5003;64554;43.452;4.934;2022-11-15T04:50:44;14.00;14.00;8.75
69349;PMS5003;64554;43.452;4.934;2022-11-15T04:53:10;15.00;15.00;9.00
69349;PMS5003;64554;43.452;4.934;2022-11-15T04:55:37;16.75;14.75;9.00
69349;PMS5003;64554;43.452;4.934;2022-11-15T04:58:03;14.80;14.80;9.00
69349;PMS5003;64554;43.452;4.934;2022-11-15T05:00:30;15.40;14.00;10.00
69349;PMS5003;64554;43.452;4.934;2022-11-15T05:02:56;17.25;16.50;9.00
69349;PMS5003;64554;43.452;4.934;2022-11-15T05:05:42;13.25;12.25;6.00
69349;PMS5003;64554;43.452;4.934;2022-11-15T05:08:08;12.60;12.60;8.60
69349;PMS5003;64554;43.452;4.934;2022-11-15T05:10:35;14.00;14.00;7.75
69349;PMS5003;64554;43.452;4.934;2022-11-15T05:13:01;11.60;10.60;6.60
69349;PMS5003;64554;43.452;4.934;2022-11-15T05:15:28;13.40;13.40;8.00
69349;PMS5003;64554;43.452;4.934;2022-11-15T05:17:58;15.00;15.00;9.00
69349;PMS5003;64554;43.452;4.934;2022-11-15T05:20:26;13.25;10.50;6.50
69349;PMS5003;64554;43.452;4.934;2022-11-15T05:22:53;14.00;12.25;8.00
69349;PMS5003;64554;43.452;4.934;2022-11-15T05:25:22;16.75;16.25;6.50
69349;PMS5003;64554;43.452;4.934;2022-11-15T05:27:48;14.25;14.00;9.00
69349;PMS5003;64554;43.452;4.934;2022-11-15T05:30:15;11.20;11.20;6.60
69349;PMS5003;64554;43.452;4.934;2022-11-15T05:32:41;12.25;12.25;7.00
69349;PMS5003;64554;43.452;4.934;2022-11-15T05:35:08;12.00;12.00;7.00
69349;PMS5003;64554;43.452;4.934;2022-11-15T05:37:38;12.80;12.80;7.60
69349;PMS5003;64554;43.452;4.934;2022-11-15T05:40:04;13.00;13.00;7.40
69349;PMS5003;64554;43.452;4.934;2022-11-15T05:42:31;11.75;10.25;7.25
69349;PMS5003;64554;43.452;4.934;2022-11-15T05:44:57;13.50;13.50;8.50
69349;PMS5003;64554;43.452;4.934;2022-11-15T05:47:25;12.50;11.75;7.75
69349;PMS5003;64554;43.452;4.934;2022-11-15T05:49:53;11.00;11.00;7.00
69349;PMS5003;64554;43.452;4.934;2022-11-15T05:52:22;13.00;13.00;8.00
69349;PMS5003;64554;43.452;4.934;2022-11-15T05:54:49;11.00;11.00;6.60
69349;PMS5003;64554;43.452;4.934;2022-11-15T05:57:17;17.40;16.40;7.00
69349;PMS5003;64554;43.452;4.934;2022-11-15T05:59:43;11.00;11.00;7.00
69349;PMS5003;64554;43.452;4.934;2022-11-15T06:02:10;13.00;13.00;5.60
69349;PMS5003;64554;43.452;4.934;2022-11-15T06:04:37;14.00;14.00;8.00
69349;PMS5003;64554;43.452;4.934;2022-11-15T06:07:04;11.25;11.25;6.25
69349;PMS5003;64554;43.452;4.934;2022-11-15T06:09:30;18.00;16.60;8.20
69349;PMS5003;64554;43.452;4.934;2022-11-15T06:11:57;15.00;14.00;9.00
69349;PMS5003;64554;43.452;4.934;2022-11-15T06:14:23;15.80;13.80;7.80
69349;PMS5003;64554;43.452;4.934;2022-11-15T06:16:50;15.00;10.60;7.40
69349;PMS5003;64554;43.452;4.934;2022-11-15T06:19:16;11.00;11.00;7.00
69349;PMS5003;64554;43.452;4.934;2022-11-15T06:21:42;11.00;11.00;7.00
69349;PMS5003;64554;43.452;4.934;2022-11-15T06:24:09;13.00;11.40;6.60
69349;PMS5003;64554;43.452;4.934;2022-11-15T06:26:35;10.50;10.50;7.50
69349;PMS5003;64554;43.452;4.934;2022-11-15T06:29:02;12.00;10.50;7.00
69349;PMS5003;64554;43.452;4.934;2022-11-15T06:31:29;10.00;9.00;6.00
69349;PMS5003;64554;43.452;4.934;2022-11-15T06:33:56;10.50;10.00;8.00
69349;PMS5003;64554;43.452;4.934;2022-11-15T06:36:22;10.00;10.00;6.00
69349;PMS5003;64554;43.452;4.934;2022-11-15T06:38:49;10.00;10.00;7.00
69349;PMS5003;64554;43.452;4.934;2022-11-15T06:41:15;10.00;10.00;6.00
69349;PMS5003;64554;43.452;4.934;2022-11-15T06:43:43;9.50;9.50;5.75
69349;PMS5003;64554;43.452;4.934;2022-11-15T06:46:09;11.33;11.00;7.00
69349;PMS5003;64554;43.452;4.934;2022-11-15T06:48:36;13.00;13.00;8.60
69349;PMS5003;64554;43.452;4.934;2022-11-15T06:51:03;12.00;12.00;7.75
69349;PMS5003;64554;43.452;4.934;2022-11-15T06:53:30;15.00;13.00;9.00
69349;PMS5003;64554;43.452;4.934;2022-11-15T06:56:01;11.50;10.50;8.00
69349;PMS5003;64554;43.452;4.934;2022-11-15T06:58:27;14.00;14.00;7.50
69349;PMS5003;64554;43.452;4.934;2022-11-15T07:00:57;8.00;8.00;7.00
69349;PMS5003;64554;43.452;4.934;2022-11-15T07:03:24;13.40;12.40;8.00
69349;PMS5003;64554;43.452;4.934;2022-11-15T07:05:51;11.00;11.00;6.75
69349;PMS5003;64554;43.452;4.934;2022-11-15T07:08:19;12.00;12.00;9.00
69349;PMS5003;64554;43.452;4.934;2022-11-15T07:10:45;17.60;17.00;11.00
69349;PMS5003;64554;43.452;4.934;2022-11-15T07:13:12;12.50;12.50;9.50
69349;PMS5003;64554;43.452;4.934;2022-11-15T07:15:38;14.60;14.60;10.00
69349;PMS5003;64554;43.452;4.934;2022-11-15T07:18:05;13.40;13.40;9.40
69349;PMS5003;64554;43.452;4.934;2022-11-15T07:20:31;13.00;12.00;8.50
69349;PMS5003;64554;43.452;4.934;2022-11-15T07:23:01;17.25;17.25;11.00
69349;PMS5003;64554;43.452;4.934;2022-11-15T07:25:28;15.00;15.00;10.00
69349;PMS5003;64554;43.452;4.934;2022-11-15T07:27:55;15.00;15.00;10.00
69349;PMS5003;64554;43.452;4.934;2022-11-15T07:30:22;20.00;19.00;10.50
69349;PMS5003;64554;43.452;4.934;2022-11-15T07:32:55;13.00;13.00;9.00
69349;PMS5003;64554;43.452;4.934;2022-11-15T07:35:22;14.00;13.00;8.25
69349;PMS5003;64554;43.452;4.934;2022-11-15T07:38:01;16.60;14.80;10.00
69349;PMS5003;64554;43.452;4.934;2022-11-15T07:40:30;12.00;12.00;7.60
69349;PMS5003;64554;43.452;4.934;2022-11-15T07:43:01;15.00;15.00;9.00
69349;PMS5003;64554;43.452;4.934;2022-11-15T07:45:27;13.00;13.00;8.00
69349;PMS5003;64554;43.452;4.934;2022-11-15T07:47:54;12.25;11.00;7.25
69349;PMS5003;64554;43.452;4.934;2022-11-15T07:50:22;13.25;12.00;8.00
69349;PMS5003;64554;43.452;4.934;2022-11-15T07:52:53;13.00;13.00;8.00
69349;PMS5003;64554;43.452;4.934;2022-11-15T07:55:20;13.60;13.60;8.00
69349;PMS5003;64554;43.452;4.934;2022-11-15T07:57:46;12.00;12.00;8.00
69349;PMS5003;64554;43.452;4.934;2022-11-15T08:00:13;15.40;15.00;7.40
69349;PMS5003;64554;43.452;4.934;2022-11-15T08:02:40;14.00;13.67;9.00
69349;PMS5003;64554;43.452;4.934;2022-11-15T08:05:06;13.25;12.00;7.00
69349;PMS5003;64554;43.452;4.934;2022-11-15T08:07:33;11.20;11.20;7.60
69349;PMS5003;64554;43.452;4.934;2022-11-15T08:09:59;20.00;20.00;7.50
69349;PMS5003;64554;43.452;4.934;2022-11-15T08:12:27;11.67;11.67;7.33
69349;PMS5003;64554;43.452;4.934;2022-11-15T08:14:55;17.50;12.50;8.50
69349;PMS5003;64554;43.452;4.934;2022-11-15T08:17:25;11.00;10.40;8.00
69349;PMS5003;64554;43.452;4.934;2022-11-15T08:19:51;14.60;13.60;8.00
69349;PMS5003;64554;43.452;4.934;2022-11-15T08:22:18;13.00;13.00;8.40
69349;PMS5003;64554;43.452;4.934;2022-11-15T08:24:44;14.25;14.25;7.75
69349;PMS5003;64554;43.452;4.934;2022-11-15T08:27:11;19.40;17.40;9.00
69349;PMS5003;64554;43.452;4.934;2022-11-15T08:29:43;11.00;11.00;7.40
69349;PMS5003;64554;43.452;4.934;2022-11-15T08:32:10;13.00;13.00;9.00
69349;PMS5003;64554;43.452;4.934;2022-11-15T08:34:37;13.60;13.60;8.60
69349;PMS5003;64554;43.452;4.934;2022-11-15T08:37:04;17.25;15.50;10.00
69349;PMS5003;64554;43.452;4.934;2022-11-15T08:39:31;12.50;12.50;8.00
69349;PMS5003;64554;43.452;4.934;2022-11-15T08:41:58;12.00;12.00;8.00
69349;PMS5003;64554;43.452;4.934;2022-11-15T08:44:24;18.00;18.00;8.00
69349;PMS5003;64554;43.452;4.934;2022-11-15T08:46:51;13.75;11.75;8.00
69349;PMS5003;64554;43.452;4.934;2022-11-15T08:49:17;11.00;11.00;7.20
69349;PMS5003;64554;43.452;4.934;2022-11-15T08:51:44;15.60;15.60;8.00
69349;PMS5003;64554;43.452;4.934;2022-11-15T08:54:10;13.00;13.00;8.00
69349;PMS5003;64554;43.452;4.934;2022-11-15T08:56:36;13.40;11.40;8.00
69349;PMS5003;64554;43.452;4.934;2022-11-15T08:59:03;14.00;14.00;8.00
69349;PMS5003;64554;43.452;4.934;2022-11-15T09:01:29;15.80;12.80;9.00
69349;PMS5003;64554;43.452;4.934;2022-11-15T09:03:56;16.00;12.00;9.00
69349;PMS5003;64554;43.452;4.934;2022-11-15T09:06:22;13.60;13.60;9.00
69349;PMS5003;64554;43.452;4.934;2022-11-15T09:08:49;13.00;11.00;6.50
69349;PMS5003;64554;43.452;4.934;2022-11-15T09:11:15;11.25;11.00;7.25
69349;PMS5003;64554;43.452;4.934;2022-11-15T09:13:46;12.00;11.00;8.00
69349;PMS5003;64554;43.452;4.934;2022-11-15T09:16:12;9.50;9.50;6.50
69349;PMS5003;64554;43.452;4.934;2022-11-15T09:18:41;13.00;12.00;8.00
69349;PMS5003;64554;43.452;4.934;2022-11-15T09:21:08;14.00;11.00;8.00
69349;PMS5003;64554;43.452;4.934;2022-11-15T09:23:35;12.40;12.40;8.00
69349;PMS5003;64554;43.452;4.934;2022-11-15T09:26:02;15.25;13.00;7.50
69349;PMS5003;64554;43.452;4.934;2022-11-15T09:28:29;13.00;11.00;6.40
69349;PMS5003;64554;43.452;4.934;2022-11-15T09:31:00;11.80;10.80;7.80
69349;PMS5003;64554;43.452;4.934;2022-11-15T09:33:27;10.00;10.00;8.00
69349;PMS5003;64554;43.452;4.934;2022-11-15T09:35:57;14.80;12.00;8.80
69349;PMS5003;64554;43.452;4.934;2022-11-15T09:38:26;17.80;16.80;9.20
69349;PMS5003;64554;43.452;4.934;2022-11-15T09:40:54;13.40;11.40;8.40
69349;PMS5003;64554;43.452;4.934;2022-11-15T09:43:26;14.75;13.75;8.00
69349;PMS5003;64554;43.452;4.934;2022-11-15T09:46:15;16.25;14.25;9.25
69349;PMS5003;64554;43.452;4.934;2022-11-15T09:48:53;15.40;15.40;11.00
69349;PMS5003;64554;43.452;4.934;2022-11-15T09:54:03;13.40;12.40;8.00
69349;PMS5003;64554;43.452;4.934;2022-11-15T09:56:50;13.75;13.75;8.75
69349;PMS5003;64554;43.452;4.934;2022-11-15T10:02:03;13.00;13.00;9.00
69349;PMS5003;64554;43.452;4.934;2022-11-15T10:04:35;13.00;13.00;9.00
69349;PMS5003;64554;43.452;4.934;2022-11-15T10:07:50;15.00;15.00;10.00
69349;PMS5003;64554;43.452;4.934;2022-11-15T10:12:19;13.40;13.40;10.00
69349;PMS5003;64554;43.452;4.934;2022-11-15T10:14:45;13.40;10.40;8.00
69349;PMS5003;64554;43.452;4.934;2022-11-15T10:17:27;18.50;15.25;8.25
69349;PMS5003;64554;43.452;4.934;2022-11-15T10:25:23;14.00;14.00;7.00
69349;PMS5003;64554;43.452;4.934;2022-11-15T10:27:50;14.50;10.50;6.50
69349;PMS5003;64554;43.452;4.934;2022-11-15T10:30:23;12.00;11.00;6.25
69349;PMS5003;64554;43.452;4.934;2022-11-15T10:32:50;12.40;12.40;7.40
69349;PMS5003;64554;43.452;4.934;2022-11-15T10:35:21;11.67;11.33;8.00
69349;PMS5003;64554;43.452;4.934;2022-11-15T10:37:48;12.00;11.00;7.00
69349;PMS5003;64554;43.452;4.934;2022-11-15T10:40:22;10.50;10.50;7.00
69349;PMS5003;64554;43.452;4.934;2022-11-15T10:43:12;10.60;10.60;9.00
69349;PMS5003;64554;43.452;4.934;2022-11-15T10:45:40;12.00;12.00;8.40
69349;PMS5003;64554;43.452;4.934;2022-11-15T10:50:40;11.00;11.00;7.25
69349;PMS5003;64554;43.452;4.934;2022-11-15T10:55:42;16.00;16.00;7.00
69349;PMS5003;64554;43.452;4.934;2022-11-15T10:58:30;16.40;12.60;6.00
69349;PMS5003;64554;43.452;4.934;2022-11-15T11:01:18;12.80;12.80;8.00
69349;PMS5003;64554;43.452;4.934;2022-11-15T11:03:57;19.40;13.40;8.60
69349;PMS5003;64554;43.452;4.934;2022-11-15T11:06:25;11.00;9.25;6.25
69349;PMS5003;64554;43.452;4.934;2022-11-15T11:11:21;12.40;12.40;8.00
69349;PMS5003;64554;43.452;4.934;2022-11-15T11:13:47;15.40;12.40;8.40
69349;PMS5003;64554;43.452;4.934;2022-11-15T11:18:47;13.80;13.60;9.60
69349;PMS5003;64554;43.452;4.934;2022-11-15T11:21:22;11.60;11.60;8.00
69349;PMS5003;64554;43.452;4.934;2022-11-15T11:24:02;15.00;13.25;9.00
69349;PMS5003;64554;43.452;4.934;2022-11-15T11:29:26;11.00;11.00;8.00
69349;PMS5003;64554;43.452;4.934;2022-11-15T11:37:17;12.00;11.00;8.00
69349;PMS5003;64554;43.452;4.934;2022-11-15T11:47:40;9.50;9.50;8.00
69349;PMS5003;64554;43.452;4.934;2022-11-15T11:50:11;12.00;11.40;8.40
69349;PMS5003;64554;43.452;4.934;2022-11-15T11:52:42;13.60;11.60;8.60
69349;PMS5003;64554;43.452;4.934;2022-11-15T12:00:21;12.25;12.25;7.00
69349;PMS5003;64554;43.452;4.934;2022-11-15T12:13:43;13.80;12.00;8.80
69349;PMS5003;64554;43.452;4.934;2022-11-15T12:16:15;14.50;11.00;6.50
69349;PMS5003;64554;43.452;4.934;2022-11-15T12:18:44;12.25;11.00;8.00
69349;PMS5003;64554;43.452;4.934;2022-11-15T12:21:19;13.40;11.40;7.60
69349;PMS5003;64554;43.452;4.934;2022-11-15T12:23:55;11.00;11.00;7.00
69349;PMS5003;64554;43.452;4.934;2022-11-15T12:26:26;12.00;10.40;6.60
69349;PMS5003;64554;43.452;4.934;2022-11-15T12:31:40;10.80;10.80;8.00
69349;PMS5003;64554;43.452;4.934;2022-11-15T12:36:41;18.00;16.00;8.40
69349;PMS5003;64554;43.452;4.934;2022-11-15T12:39:09;12.60;10.00;7.00
69349;PMS5003;64554;43.452;4.934;2022-11-15T12:41:37;11.60;11.00;8.00
69349;PMS5003;64554;43.452;4.934;2022-11-15T12:44:04;10.60;10.40;7.00
69349;PMS5003;64554;43.452;4.934;2022-11-15T12:49:01;15.00;14.00;6.00
69349;PMS5003;64554;43.452;4.934;2022-11-15T13:02:34;10.00;9.00;5.60
69349;PMS5003;64554;43.452;4.934;2022-11-15T13:17:43;10.00;10.00;6.50
69349;PMS5003;64554;43.452;4.934;2022-11-15T13:27:50;11.50;10.50;7.50
69349;PMS5003;64554;43.452;4.934;2022-11-15T13:30:27;14.25;13.75;8.75
69349;PMS5003;64554;43.452;4.934;2022-11-15T13:32:55;13.80;12.80;8.20
69349;PMS5003;64554;43.452;4.934;2022-11-15T13:35:23;18.60;13.80;8.40
69349;PMS5003;64554;43.452;4.934;2022-11-15T13:37:50;16.00;16.00;8.40
69349;PMS5003;64554;43.452;4.934;2022-11-15T13:40:20;15.60;15.60;8.40
69349;PMS5003;64554;43.452;4.934;2022-11-15T13:42:47;14.00;14.00;9.00
69349;PMS5003;64554;43.452;4.934;2022-11-15T13:45:14;16.25;14.00;7.50
69349;PMS5003;64554;43.452;4.934;2022-11-15T13:47:41;13.50;9.00;6.50
69349;PMS5003;64554;43.452;4.934;2022-11-15T13:50:11;8.60;8.00;5.00
69349;PMS5003;64554;43.452;4.934;2022-11-15T13:52:38;11.20;11.20;6.40
69349;PMS5003;64554;43.452;4.934;2022-11-15T13:55:11;10.00;8.60;6.00
69349;PMS5003;64554;43.452;4.934;2022-11-15T14:00:19;11.00;10.00;7.00
69349;PMS5003;64554;43.452;4.934;2022-11-15T14:02:48;9.25;9.25;7.25
69349;PMS5003;64554;43.452;4.934;2022-11-15T14:05:16;12.00;11.60;6.60
69349;PMS5003;64554;43.452;4.934;2022-11-15T14:11:04;13.20;12.40;6.40
69349;PMS5003;64554;43.452;4.934;2022-11-15T14:13:27;10.75;8.50;6.00
69349;PMS5003;64554;43.452;4.934;2022-11-15T14:15:54;15.80;10.80;5.80
69349;PMS5003;64554;43.452;4.934;2022-11-15T14:18:43;13.50;11.50;7.00
69349;PMS5003;64554;43.452;4.934;2022-11-15T14:21:10;10.00;10.00;8.00
69349;PMS5003;64554;43.452;4.934;2022-11-15T14:23:37;13.00;12.00;7.00
69349;PMS5003;64554;43.452;4.934;2022-11-15T14:26:04;11.00;9.00;6.00
69349;PMS5003;64554;43.452;4.934;2022-11-15T14:28:36;12.50;11.50;6.50
69349;PMS5003;64554;43.452;4.934;2022-11-15T14:31:09;13.00;11.00;7.50
69349;PMS5003;64554;43.452;4.934;2022-11-15T14:33:36;13.00;11.60;8.00
69349;PMS5003;64554;43.452;4.934;2022-11-15T14:36:04;12.00;10.00;8.50
69349;PMS5003;64554;43.452;4.934;2022-11-15T14:38:31;10.25;8.50;5.50
69349;PMS5003;64554;43.452;4.934;2022-11-15T14:40:58;10.80;9.60;6.60
69349;PMS5003;64554;43.452;4.934;2022-11-15T14:43:25;17.80;13.60;7.60
69349;PMS5003;64554;43.452;4.934;2022-11-15T14:45:51;12.75;11.00;8.00
69349;PMS5003;64554;43.452;4.934;2022-11-15T14:48:18;11.50;11.50;7.00
69349;PMS5003;64554;43.452;4.934;2022-11-15T14:50:44;18.25;16.00;7.75
69349;PMS5003;64554;43.452;4.934;2022-11-15T14:53:11;11.20;11.20;7.60
69349;PMS5003;64554;43.452;4.934;2022-11-15T14:55:38;17.40;16.00;7.40
69349;PMS5003;64554;43.452;4.934;2022-11-15T14:58:06;11.00;10.25;8.00
69349;PMS5003;64554;43.452;4.934;2022-11-15T15:00:38;10.00;9.00;7.00
69349;PMS5003;64554;43.452;4.934;2022-11-15T15:03:05;11.50;10.00;6.00
69349;PMS5003;64554;43.452;4.934;2022-11-15T15:05:39;12.75;12.75;7.75
69349;PMS5003;64554;43.452;4.934;2022-11-15T15:08:06;11.25;11.00;8.25
69349;PMS5003;64554;43.452;4.934;2022-11-15T15:10:34;12.60;9.60;6.60
69349;PMS5003;64554;43.452;4.934;2022-11-15T15:15:39;11.00;9.40;7.00
69349;PMS5003;64554;43.452;4.934;2022-11-15T15:18:05;14.00;9.40;7.00
69349;PMS5003;64554;43.452;4.934;2022-11-15T15:20:34;14.00;13.50;9.50
69349;PMS5003;64554;43.452;4.934;2022-11-15T15:23:01;10.75;10.00;7.00
69349;PMS5003;64554;43.452;4.934;2022-11-15T15:25:32;16.25;13.50;9.00
69349;PMS5003;64554;43.452;4.934;2022-11-15T15:27:59;13.60;9.00;7.00
69349;PMS5003;64554;43.452;4.934;2022-11-15T15:30:26;13.00;12.00;6.60
69349;PMS5003;64554;43.452;4.934;2022-11-15T15:32:53;11.20;9.80;5.80
69349;PMS5003;64554;43.452;4.934;2022-11-15T15:35:20;12.00;9.50;7.50
69349;PMS5003;64554;43.452;4.934;2022-11-15T15:37:47;11.33;8.33;4.67
69349;PMS5003;64554;43.452;4.934;2022-11-15T15:40:18;15.20;13.80;8.00
69349;PMS5003;64554;43.452;4.934;2022-11-15T15:42:46;13.20;11.60;7.00
69349;PMS5003;64554;43.452;4.934;2022-11-15T15:45:13;10.00;10.00;6.40
69349;PMS5003;64554;43.452;4.934;2022-11-15T15:47:39;11.40;11.40;6.40
69349;PMS5003;64554;43.452;4.934;2022-11-15T15:50:25;9.25;9.25;7.00
69349;PMS5003;64554;43.452;4.934;2022-11-15T15:52:52;13.00;11.40;7.60
69349;PMS5003;64554;43.452;4.934;2022-11-15T15:55:19;13.00;12.50;7.50
69349;PMS5003;64554;43.452;4.934;2022-11-15T15:57:46;19.00;16.25;10.25
69349;PMS5003;64554;43.452;4.934;2022-11-15T16:00:13;10.00;10.00;7.00
69349;PMS5003;64554;43.452;4.934;2022-11-15T16:02:40;14.00;12.40;8.00
69349;PMS5003;64554;43.452;4.934;2022-11-15T16:05:07;12.25;10.00;6.00
69349;PMS5003;64554;43.452;4.934;2022-11-15T16:07:34;13.00;13.00;10.00
69349;PMS5003;64554;43.452;4.934;2022-11-15T16:10:00;11.40;10.40;6.00
69349;PMS5003;64554;43.452;4.934;2022-11-15T16:12:28;15.60;13.00;9.00
69349;PMS5003;64554;43.452;4.934;2022-11-15T16:14:55;13.25;12.75;6.75
69349;PMS5003;64554;43.452;4.934;2022-11-15T16:17:22;11.00;11.00;7.60
69349;PMS5003;64554;43.452;4.934;2022-11-15T16:19:50;15.00;12.50;9.00
69349;PMS5003;64554;43.452;4.934;2022-11-15T16:22:16;14.00;9.50;6.00
69349;PMS5003;64554;43.452;4.934;2022-11-15T16:24:42;11.00;10.00;7.00